createdAt,value
2023-04-09T00:01:10.361Z,83.99
2023-04-09T00:03:38.484Z,84.50
2023-04-09T00:06:05.619Z,84.27
2023-04-09T00:08:32.337Z,84.33
2023-04-09T00:11:00.050Z,84.72
2023-04-09T00:15:59.433Z,84.66
2023-04-09T00:18:26.283Z,84.55
2023-04-09T00:20:52.890Z,85.00
2023-04-09T00:23:20.959Z,85.00
2023-04-09T00:25:47.546Z,85.41
2023-04-09T00:28:14.171Z,85.46
2023-04-09T00:30:40.809Z,85.51
2023-04-09T00:33:07.470Z,85.73
2023-04-09T00:35:34.121Z,85.14
2023-04-09T00:38:00.787Z,85.10
2023-04-09T00:40:27.451Z,85.14
2023-04-09T00:42:54.125Z,85.63
2023-04-09T00:45:23.590Z,85.50
2023-04-09T00:47:50.625Z,85.38
2023-04-09T00:50:17.385Z,85.58
2023-04-09T00:52:44.112Z,85.91
2023-04-09T00:55:10.953Z,86.03
2023-04-09T00:57:37.685Z,86.07
2023-04-09T01:00:04.976Z,86.19
2023-04-09T01:02:31.781Z,85.90
2023-04-09T01:04:58.925Z,85.94
2023-04-09T01:07:31.566Z,86.09
2023-04-09T01:10:23.951Z,85.99
2023-04-09T01:13:15.163Z,86.10
2023-04-09T01:15:50.364Z,85.78
2023-04-09T01:18:49.280Z,86.07
2023-04-09T01:21:20.504Z,85.88
2023-04-09T01:24:08.795Z,85.57
2023-04-09T01:26:57.291Z,85.74
2023-04-09T01:29:26.119Z,86.11
2023-04-09T01:31:54.431Z,86.01
2023-04-09T01:34:22.380Z,86.09
2023-04-09T01:36:53.986Z,86.34
2023-04-09T01:39:21.282Z,86.39
2023-04-09T01:41:48.942Z,86.66
2023-04-09T01:44:20.121Z,86.73
2023-04-09T01:46:48.376Z,86.89
2023-04-09T01:49:15.703Z,87.09
2023-04-09T01:51:42.591Z,87.48
2023-04-09T01:54:09.597Z,87.06
2023-04-09T01:56:48.124Z,86.30
2023-04-09T01:59:15.760Z,86.05
2023-04-09T02:01:58.684Z,85.59
2023-04-09T02:04:35.691Z,85.26
2023-04-09T02:07:12.859Z,84.79
2023-04-09T02:09:43.582Z,84.91
2023-04-09T02:12:13.691Z,85.31
2023-04-09T02:14:41.499Z,85.14
2023-04-09T02:17:08.276Z,85.22
2023-04-09T02:19:40.979Z,85.57
2023-04-09T02:22:08.041Z,85.15
2023-04-09T02:24:34.824Z,85.26
2023-04-09T02:27:02.285Z,85.22
2023-04-09T02:29:28.973Z,85.33
2023-04-09T02:31:55.605Z,85.47
2023-04-09T02:34:22.750Z,85.85
2023-04-09T02:36:49.402Z,85.77
2023-04-09T02:39:16.220Z,86.01
2023-04-09T02:41:42.818Z,85.86
2023-04-09T02:44:09.430Z,85.50
2023-04-09T02:46:38.965Z,85.33
2023-04-09T02:49:05.665Z,85.66
2023-04-09T02:51:34.169Z,85.79
2023-04-09T02:54:00.806Z,85.52
2023-04-09T02:56:27.533Z,85.41
2023-04-09T02:58:54.499Z,85.80
2023-04-09T03:01:21.370Z,85.45
2023-04-09T03:03:48.218Z,85.77
2023-04-09T03:06:15.028Z,85.82
2023-04-09T03:08:41.658Z,86.13
2023-04-09T03:11:08.257Z,85.22
2023-04-09T03:13:34.818Z,85.02
2023-04-09T03:16:01.416Z,85.22
2023-04-09T03:18:28.122Z,85.34
2023-04-09T03:20:54.690Z,84.97
2023-04-09T03:23:21.298Z,85.52
2023-04-09T03:25:47.915Z,85.63
2023-04-09T03:28:14.502Z,85.58
2023-04-09T03:30:41.297Z,85.22
2023-04-09T03:33:07.942Z,85.30
2023-04-09T03:35:34.617Z,85.65
2023-04-09T03:38:01.277Z,85.64
2023-04-09T03:40:27.957Z,85.76
2023-04-09T03:42:54.520Z,85.68
2023-04-09T03:45:21.424Z,85.46
2023-04-09T03:47:48.050Z,85.13
2023-04-09T03:50:14.856Z,85.15
2023-04-09T03:52:41.423Z,84.33
2023-04-09T03:55:08.928Z,84.62
2023-04-09T03:57:35.615Z,84.36
2023-04-09T04:00:02.204Z,83.30
2023-04-09T04:02:32.038Z,83.68
2023-04-09T04:04:58.781Z,84.39
2023-04-09T04:07:25.682Z,84.94
2023-04-09T04:09:52.294Z,85.00
2023-04-09T04:12:18.989Z,84.97
2023-04-09T04:14:45.820Z,84.79
2023-04-09T04:17:12.576Z,85.21
2023-04-09T04:19:39.178Z,85.29
2023-04-09T04:22:05.782Z,85.13
2023-04-09T04:24:32.403Z,84.71
2023-04-09T04:26:59.037Z,84.32
2023-04-09T04:29:27.744Z,83.99
2023-04-09T04:31:54.380Z,84.12
2023-04-09T04:34:20.967Z,84.38
2023-04-09T04:36:47.512Z,84.52
2023-04-09T04:39:14.172Z,84.82
2023-04-09T04:41:40.733Z,84.69
2023-04-09T04:44:07.319Z,84.24
2023-04-09T04:46:33.961Z,84.57
2023-04-09T04:49:00.796Z,84.50
2023-04-09T04:51:27.892Z,84.78
2023-04-09T04:53:54.595Z,85.54
2023-04-09T04:56:21.399Z,85.26
2023-04-09T04:58:47.971Z,85.40
2023-04-09T05:01:14.688Z,85.11
2023-04-09T05:03:41.432Z,84.88
2023-04-09T05:06:08.058Z,85.31
2023-04-09T05:08:34.725Z,85.64
2023-04-09T05:11:01.339Z,85.84
2023-04-09T05:13:27.965Z,86.59
2023-04-09T05:15:54.626Z,86.96
2023-04-09T05:18:21.742Z,87.27
2023-04-09T05:20:48.316Z,87.15
2023-04-09T05:23:14.902Z,86.77
2023-04-09T05:25:41.527Z,87.29
2023-04-09T05:28:08.279Z,86.54
2023-04-09T05:30:34.941Z,85.61
2023-04-09T05:33:01.631Z,85.61
2023-04-09T05:35:28.300Z,85.71
2023-04-09T05:37:54.965Z,85.26
2023-04-09T05:40:21.728Z,85.33
2023-04-09T05:42:48.364Z,85.83
2023-04-09T05:45:15.136Z,85.11
2023-04-09T05:47:41.726Z,85.39
2023-04-09T05:50:08.677Z,84.45
2023-04-09T05:52:35.440Z,85.34
2023-04-09T05:55:02.049Z,86.02
2023-04-09T05:57:30.597Z,86.87
2023-04-09T05:59:57.459Z,86.01
2023-04-09T06:02:25.984Z,86.04
2023-04-09T06:04:54.691Z,85.76
2023-04-09T06:07:21.523Z,86.29
2023-04-09T06:09:48.248Z,85.86
2023-04-09T06:12:15.796Z,86.06
2023-04-09T06:14:42.403Z,85.85
2023-04-09T06:17:09.041Z,85.27
2023-04-09T06:19:35.887Z,83.90
2023-04-09T06:22:02.514Z,83.43
2023-04-09T06:24:31.613Z,83.13
2023-04-09T06:26:58.263Z,84.04
2023-04-09T06:29:24.891Z,84.59
2023-04-09T06:31:51.763Z,85.27
2023-04-09T06:34:18.416Z,85.59
2023-04-09T06:36:45.001Z,85.75
2023-04-09T06:39:11.859Z,84.10
2023-04-09T06:41:38.470Z,83.45
2023-04-09T06:44:05.415Z,83.09
2023-04-09T06:46:32.094Z,84.34
2023-04-09T06:48:58.750Z,83.15
2023-04-09T06:51:25.386Z,83.18
2023-04-09T06:53:52.218Z,83.66
2023-04-09T06:56:18.940Z,83.81
2023-04-09T06:58:48.557Z,84.26
2023-04-09T07:01:17.347Z,84.11
2023-04-09T07:03:44.152Z,84.07
2023-04-09T07:06:10.833Z,84.04
2023-04-09T07:08:37.432Z,83.84
2023-04-09T07:11:04.150Z,82.60
2023-04-09T07:13:31.427Z,82.09
2023-04-09T07:15:58.023Z,80.83
2023-04-09T07:18:24.652Z,81.40
2023-04-09T07:20:52.701Z,79.49
2023-04-09T07:23:19.655Z,79.75
2023-04-09T07:25:46.324Z,80.31
2023-04-09T07:28:13.079Z,79.87
2023-04-09T07:30:42.775Z,79.17
2023-04-09T07:33:09.437Z,77.95
2023-04-09T07:35:36.264Z,78.08
2023-04-09T07:38:03.200Z,77.27
2023-04-09T07:40:29.807Z,77.70
2023-04-09T07:43:01.059Z,77.62
2023-04-09T07:45:27.705Z,76.68
2023-04-09T07:47:54.364Z,76.67
2023-04-09T07:50:21.236Z,75.69
2023-04-09T07:52:47.816Z,74.29
2023-04-09T07:55:15.159Z,73.90
2023-04-09T07:57:43.728Z,74.61
2023-04-09T08:00:11.044Z,74.17
2023-04-09T08:02:37.832Z,72.87
2023-04-09T08:05:05.082Z,72.97
2023-04-09T08:07:31.788Z,71.88
2023-04-09T08:09:58.364Z,71.03
2023-04-09T08:12:25.163Z,72.09
2023-04-09T08:14:51.811Z,70.99
2023-04-09T08:17:18.404Z,70.01
2023-04-09T08:19:45.062Z,68.90
2023-04-09T08:22:11.927Z,70.64
2023-04-09T08:24:40.269Z,69.93
2023-04-09T08:27:06.983Z,69.44
2023-04-09T08:29:34.558Z,68.84
2023-04-09T08:32:01.369Z,68.64
2023-04-09T08:34:28.191Z,69.92
2023-04-09T08:36:54.844Z,68.82
2023-04-09T08:39:21.622Z,68.86
2023-04-09T08:41:51.413Z,68.36
2023-04-09T08:44:18.488Z,67.37
2023-04-09T08:46:45.214Z,67.42
2023-04-09T08:49:13.060Z,67.38
2023-04-09T08:51:40.409Z,68.20
2023-04-09T08:54:07.529Z,65.27
2023-04-09T08:56:34.244Z,66.41
2023-04-09T08:59:00.865Z,63.68
2023-04-09T09:01:32.608Z,65.02
2023-04-09T09:04:02.074Z,64.99
2023-04-09T09:06:32.868Z,66.50
2023-04-09T09:09:16.934Z,67.15
2023-04-09T09:11:50.217Z,65.65
2023-04-09T09:14:18.854Z,65.69
2023-04-09T09:17:04.750Z,62.76
2023-04-09T09:19:36.650Z,60.23
2023-04-09T09:22:05.439Z,60.16
2023-04-09T09:24:33.369Z,62.64
2023-04-09T09:27:03.279Z,61.63
2023-04-09T09:29:30.044Z,61.65
2023-04-09T09:31:57.014Z,61.01
2023-04-09T09:34:25.410Z,61.09
2023-04-09T09:36:52.098Z,60.08
2023-04-09T09:39:18.909Z,59.80
2023-04-09T09:41:46.577Z,59.05
2023-04-09T09:44:31.918Z,57.47
2023-04-09T09:46:59.367Z,56.18
2023-04-09T09:49:26.051Z,52.89
2023-04-09T09:51:56.873Z,52.01
2023-04-09T09:54:26.016Z,50.96
2023-04-09T09:56:56.032Z,50.68
2023-04-09T09:59:32.207Z,51.12
2023-04-09T10:02:06.215Z,51.51
2023-04-09T10:04:38.224Z,54.56
2023-04-09T10:07:07.446Z,55.62
2023-04-09T10:09:41.688Z,55.94
2023-04-09T10:12:09.749Z,55.99
2023-04-09T10:14:38.216Z,56.79
2023-04-09T10:17:05.286Z,56.79
2023-04-09T10:19:38.333Z,58.07
2023-04-09T10:22:11.825Z,59.22
2023-04-09T10:24:38.986Z,59.69
2023-04-09T10:27:15.936Z,59.03
2023-04-09T10:29:51.961Z,58.38
2023-04-09T10:32:21.650Z,58.43
2023-04-09T10:34:49.336Z,58.59
2023-04-09T10:37:21.576Z,57.00
2023-04-09T10:39:50.011Z,55.48
2023-04-09T10:42:27.342Z,53.19
2023-04-09T10:45:10.315Z,51.84
2023-04-09T10:47:39.513Z,51.77
2023-04-09T10:50:16.045Z,52.92
2023-04-09T10:52:44.338Z,54.17
2023-04-09T10:55:31.547Z,53.07
2023-04-09T10:57:58.865Z,52.93
2023-04-09T11:00:25.570Z,52.05
2023-04-09T11:03:08.016Z,51.65
2023-04-09T11:05:38.503Z,51.67
2023-04-09T11:08:13.406Z,52.70
2023-04-09T11:10:41.384Z,54.02
2023-04-09T11:13:13.395Z,53.37
2023-04-09T11:15:40.280Z,52.44
2023-04-09T11:18:07.241Z,51.84
2023-04-09T11:20:34.825Z,52.05
2023-04-09T11:23:02.169Z,51.74
2023-04-09T11:25:31.533Z,51.45
2023-04-09T11:27:58.874Z,51.77
2023-04-09T11:30:26.361Z,52.28
2023-04-09T11:32:53.207Z,51.76
2023-04-09T11:35:25.028Z,52.15
2023-04-09T11:37:52.556Z,52.25
2023-04-09T11:40:29.150Z,53.46
2023-04-09T11:42:57.079Z,53.62
2023-04-09T11:45:27.451Z,53.44
2023-04-09T11:47:55.056Z,54.25
2023-04-09T11:50:22.427Z,54.65
2023-04-09T11:52:49.829Z,54.99
2023-04-09T11:55:27.105Z,55.39
2023-04-09T11:57:57.574Z,56.70
2023-04-09T12:00:25.152Z,57.48
2023-04-09T12:03:04.243Z,57.38
2023-04-09T12:05:33.833Z,57.94
2023-04-09T12:08:02.659Z,58.42
2023-04-09T12:10:32.639Z,58.53
2023-04-09T12:13:07.063Z,59.11
2023-04-09T12:15:35.629Z,58.91
2023-04-09T12:18:02.398Z,58.63
2023-04-09T12:20:37.771Z,57.84
2023-04-09T12:23:05.840Z,58.02
2023-04-09T12:25:36.993Z,58.82
2023-04-09T12:28:05.898Z,59.17
2023-04-09T12:30:33.252Z,59.37
2023-04-09T12:33:00.500Z,57.22
2023-04-09T12:35:30.490Z,57.99
2023-04-09T12:37:57.118Z,58.68
2023-04-09T12:40:23.752Z,58.40
2023-04-09T12:42:50.728Z,56.37
2023-04-09T12:45:18.812Z,55.23
2023-04-09T12:47:46.050Z,54.91
2023-04-09T12:50:15.018Z,55.92
2023-04-09T12:52:42.647Z,55.44
2023-04-09T12:55:09.896Z,52.33
2023-04-09T12:57:42.808Z,51.03
2023-04-09T13:00:09.908Z,50.49
2023-04-09T13:02:37.113Z,51.85
2023-04-09T13:05:04.644Z,50.58
2023-04-09T13:07:31.422Z,49.33
2023-04-09T13:09:58.283Z,49.08
2023-04-09T13:12:27.626Z,48.39
2023-04-09T13:14:54.974Z,48.78
2023-04-09T13:17:22.789Z,48.43
2023-04-09T13:19:50.825Z,48.61
2023-04-09T13:22:18.500Z,48.58
2023-04-09T13:24:45.270Z,48.36
2023-04-09T13:27:12.308Z,48.03
2023-04-09T13:29:39.143Z,47.81
2023-04-09T13:32:11.210Z,48.04
2023-04-09T13:34:39.279Z,48.47
2023-04-09T13:37:06.304Z,48.16
2023-04-09T13:39:33.261Z,47.56
2023-04-09T13:42:00.444Z,47.85
2023-04-09T13:44:27.518Z,48.33
2023-04-09T13:46:57.163Z,48.73
2023-04-09T13:49:24.002Z,48.79
2023-04-09T13:51:52.246Z,48.90
2023-04-09T13:54:19.071Z,49.36
2023-04-09T13:56:46.673Z,48.84
2023-04-09T13:59:13.331Z,48.95
2023-04-09T14:04:06.652Z,49.47
2023-04-09T14:06:33.315Z,47.96
2023-04-09T14:08:59.960Z,47.72
2023-04-09T14:11:26.604Z,47.67
2023-04-09T14:13:53.472Z,47.65
2023-04-09T14:16:20.361Z,46.80
2023-04-09T14:18:50.086Z,46.65
2023-04-09T14:21:18.177Z,47.27
2023-04-09T14:23:44.834Z,46.53
2023-04-09T14:26:12.179Z,46.01
2023-04-09T14:28:38.928Z,46.39
2023-04-09T14:31:06.512Z,47.49
2023-04-09T14:33:33.236Z,47.39
2023-04-09T14:35:59.938Z,47.71
2023-04-09T14:38:29.480Z,46.79
2023-04-09T14:40:56.181Z,46.30
2023-04-09T14:43:22.822Z,45.65
2023-04-09T14:45:49.457Z,45.66
2023-04-09T14:48:18.902Z,46.05
2023-04-09T14:50:45.590Z,46.72
2023-04-09T14:53:12.552Z,47.05
2023-04-09T14:55:39.164Z,47.54
2023-04-09T14:58:08.145Z,46.15
2023-04-09T15:00:34.811Z,46.20
2023-04-09T15:03:04.221Z,46.12
2023-04-09T15:05:31.186Z,46.19
2023-04-09T15:07:57.842Z,45.67
2023-04-09T15:10:24.516Z,46.09
2023-04-09T15:12:55.033Z,46.99
2023-04-09T15:15:21.749Z,47.11
2023-04-09T15:17:48.438Z,47.43
2023-04-09T15:20:15.173Z,47.33
2023-04-09T15:22:41.869Z,48.01
2023-04-09T15:25:08.764Z,47.29
2023-04-09T15:27:38.755Z,48.50
2023-04-09T15:30:06.429Z,48.63
2023-04-09T15:32:35.542Z,48.20
2023-04-09T15:35:02.252Z,48.65
2023-04-09T15:37:28.877Z,48.98
2023-04-09T15:39:55.500Z,48.76
2023-04-09T15:42:23.029Z,49.55
2023-04-09T15:44:53.147Z,49.33
2023-04-09T15:47:19.786Z,49.43
2023-04-09T15:49:46.950Z,48.22
2023-04-09T15:52:13.713Z,48.68
2023-04-09T15:54:40.400Z,47.65
2023-04-09T15:57:07.037Z,47.88
2023-04-09T15:59:33.706Z,48.26
2023-04-09T16:02:00.563Z,48.52
2023-04-09T16:04:27.725Z,48.38
2023-04-09T16:06:56.399Z,47.95
2023-04-09T16:09:24.924Z,48.20
2023-04-09T16:11:51.708Z,48.68
2023-04-09T16:14:18.413Z,48.30
2023-04-09T16:16:49.886Z,49.10
2023-04-09T16:19:17.813Z,49.95
2023-04-09T16:21:45.592Z,49.02
2023-04-09T16:24:12.939Z,49.52
2023-04-09T16:26:41.219Z,49.52
2023-04-09T16:29:08.641Z,49.88
2023-04-09T16:31:36.737Z,49.89
2023-04-09T16:34:03.672Z,49.66
2023-04-09T16:36:37.176Z,49.29
2023-04-09T16:39:05.153Z,49.23
2023-04-09T16:41:32.961Z,49.23
2023-04-09T16:44:00.522Z,49.53
2023-04-09T16:46:27.373Z,50.09
2023-04-09T16:48:54.214Z,49.38
2023-04-09T16:51:21.131Z,49.30
2023-04-09T16:53:48.008Z,49.51
2023-04-09T16:56:15.655Z,50.04
2023-04-09T16:58:42.279Z,50.33
2023-04-09T17:01:09.005Z,50.35
2023-04-09T17:03:35.733Z,51.23
2023-04-09T17:06:02.776Z,51.42
2023-04-09T17:08:29.380Z,52.04
2023-04-09T17:11:02.061Z,53.12
2023-04-09T17:13:34.279Z,53.39
2023-04-09T17:16:01.026Z,53.51
2023-04-09T17:18:27.866Z,52.63
2023-04-09T17:20:54.633Z,51.45
2023-04-09T17:23:23.184Z,50.74
2023-04-09T17:25:49.827Z,51.31
2023-04-09T17:28:18.795Z,51.27
2023-04-09T17:30:46.051Z,52.27
2023-04-09T17:33:12.903Z,51.56
2023-04-09T17:35:39.655Z,51.22
2023-04-09T17:38:06.710Z,51.46
2023-04-09T17:40:33.298Z,52.20
2023-04-09T17:43:00.377Z,54.11
2023-04-09T17:45:29.849Z,55.31
2023-04-09T17:47:57.313Z,55.49
2023-04-09T17:50:27.395Z,56.43
2023-04-09T17:52:54.050Z,56.41
2023-04-09T17:55:20.762Z,56.92
2023-04-09T17:57:47.462Z,57.03
2023-04-09T18:00:17.364Z,57.08
2023-04-09T18:02:45.128Z,56.77
2023-04-09T18:05:11.991Z,56.52
2023-04-09T18:07:38.693Z,57.08
2023-04-09T18:10:06.331Z,57.85
2023-04-09T18:12:33.099Z,58.12
2023-04-09T18:14:59.730Z,58.06
2023-04-09T18:17:26.616Z,58.59
2023-04-09T18:19:58.627Z,58.80
2023-04-09T18:22:27.028Z,58.21
2023-04-09T18:24:54.172Z,57.78
2023-04-09T18:27:23.134Z,58.10
2023-04-09T18:29:49.790Z,57.75
2023-04-09T18:32:19.198Z,57.72
2023-04-09T18:34:47.165Z,57.63
2023-04-09T18:37:14.889Z,58.42
2023-04-09T18:39:44.347Z,57.86
2023-04-09T18:42:10.995Z,58.68
2023-04-09T18:44:37.827Z,58.74
2023-04-09T18:47:09.392Z,58.12
2023-04-09T18:49:36.250Z,58.86
2023-04-09T18:52:05.582Z,57.85
2023-04-09T18:54:36.484Z,58.25
2023-04-09T18:57:06.597Z,59.02
2023-04-09T18:59:34.804Z,59.27
2023-04-09T19:02:03.813Z,58.48
2023-04-09T19:04:35.223Z,59.54
2023-04-09T19:07:02.622Z,59.70
2023-04-09T19:09:29.355Z,59.15
2023-04-09T19:11:57.812Z,58.81
2023-04-09T19:14:25.817Z,58.09
2023-04-09T19:16:52.420Z,59.82
2023-04-09T19:19:19.363Z,59.45
2023-04-09T19:21:45.998Z,58.09
2023-04-09T19:24:12.687Z,58.78
2023-04-09T19:26:39.586Z,58.76
2023-04-09T19:29:06.227Z,59.30
2023-04-09T19:31:32.877Z,59.49
2023-04-09T19:33:59.472Z,60.26
2023-04-09T19:36:26.902Z,60.48
2023-04-09T19:38:53.785Z,60.79
2023-04-09T19:41:20.763Z,60.62
2023-04-09T19:43:47.394Z,60.87
2023-04-09T19:46:14.081Z,61.12
2023-04-09T19:48:44.748Z,61.73
2023-04-09T19:51:18.706Z,61.56
2023-04-09T19:53:48.276Z,62.15
2023-04-09T19:56:15.709Z,61.79
2023-04-09T19:58:43.519Z,61.73
2023-04-09T20:01:10.214Z,61.64
2023-04-09T20:03:37.138Z,61.34
2023-04-09T20:06:09.261Z,61.27
2023-04-09T20:08:36.964Z,60.49
2023-04-09T20:11:03.744Z,61.17
2023-04-09T20:13:30.345Z,61.53
2023-04-09T20:15:57.301Z,61.99
2023-04-09T20:18:23.990Z,62.59
2023-04-09T20:20:53.392Z,61.64
2023-04-09T20:23:20.071Z,61.28
2023-04-09T20:25:46.969Z,61.45
2023-04-09T20:28:13.619Z,62.05
2023-04-09T20:30:40.317Z,61.89
2023-04-09T20:33:06.983Z,62.03
2023-04-09T20:35:36.653Z,61.96
2023-04-09T20:38:03.528Z,62.33
2023-04-09T20:40:31.383Z,61.84
2023-04-09T20:42:58.042Z,62.55
2023-04-09T20:45:24.680Z,62.81
2023-04-09T20:47:53.140Z,62.76
2023-04-09T20:50:19.945Z,62.56
2023-04-09T20:52:47.574Z,64.24
2023-04-09T20:55:14.355Z,63.36
2023-04-09T20:57:41.454Z,63.77
2023-04-09T21:00:08.774Z,63.62
2023-04-09T21:02:35.581Z,63.19
2023-04-09T21:05:15.058Z,62.90
2023-04-09T21:07:48.301Z,62.79
2023-04-09T21:10:15.011Z,62.32
2023-04-09T21:12:41.669Z,63.02
2023-04-09T21:15:08.846Z,63.05
2023-04-09T21:17:35.531Z,63.25
2023-04-09T21:20:02.313Z,62.99
2023-04-09T21:22:28.908Z,63.34
2023-04-09T21:24:56.397Z,63.16
2023-04-09T21:27:23.168Z,63.63
2023-04-09T21:29:49.908Z,62.93
2023-04-09T21:32:17.482Z,63.32
2023-04-09T21:34:44.092Z,63.97
2023-04-09T21:37:11.149Z,64.34
2023-04-09T21:39:38.554Z,64.35
2023-04-09T21:42:06.451Z,65.29
2023-04-09T21:44:33.811Z,65.00
2023-04-09T21:47:01.690Z,65.62
2023-04-09T21:49:28.337Z,66.44
2023-04-09T21:51:55.829Z,67.01
2023-04-09T21:54:22.432Z,67.48
2023-04-09T21:56:51.219Z,67.17
2023-04-09T21:59:17.861Z,67.57
2023-04-09T22:01:44.933Z,66.92
2023-04-09T22:04:12.056Z,67.13
2023-04-09T22:06:39.806Z,67.42
2023-04-09T22:09:06.399Z,67.50
2023-04-09T22:11:34.504Z,68.40
2023-04-09T22:14:02.641Z,67.72
2023-04-09T22:16:29.402Z,67.98
2023-04-09T22:18:56.275Z,67.52
2023-04-09T22:21:23.534Z,68.42
2023-04-09T22:23:50.124Z,68.21
2023-04-09T22:26:16.947Z,68.13
2023-04-09T22:28:43.588Z,67.80
2023-04-09T22:31:10.249Z,68.19
2023-04-09T22:33:36.915Z,67.89
2023-04-09T22:36:03.803Z,68.39
2023-04-09T22:38:30.579Z,68.71
2023-04-09T22:40:57.203Z,68.43
2023-04-09T22:43:23.852Z,69.17
2023-04-09T22:45:52.368Z,69.32
2023-04-09T22:48:19.757Z,69.29
2023-04-09T22:50:47.042Z,69.76
2023-04-09T22:53:20.935Z,69.47
2023-04-09T22:55:51.757Z,69.80
2023-04-09T22:58:19.098Z,69.67
2023-04-09T23:00:47.197Z,69.22
2023-04-09T23:03:14.348Z,70.22
2023-04-09T23:05:41.542Z,70.45
2023-04-09T23:08:08.490Z,70.49
2023-04-09T23:10:35.554Z,70.20
2023-04-09T23:13:02.439Z,70.83
2023-04-09T23:15:29.226Z,71.20
2023-04-09T23:17:56.257Z,70.92
2023-04-09T23:20:23.123Z,71.80
2023-04-09T23:22:49.831Z,71.77
2023-04-09T23:25:16.950Z,71.79
2023-04-09T23:27:43.887Z,72.18
2023-04-09T23:30:11.723Z,72.30
2023-04-09T23:32:38.420Z,72.21
2023-04-09T23:35:05.537Z,72.56
2023-04-09T23:37:32.215Z,72.73
2023-04-09T23:39:58.881Z,73.55
2023-04-09T23:42:29.836Z,73.64
2023-04-09T23:44:56.448Z,73.71
2023-04-09T23:47:23.108Z,74.51
2023-04-09T23:49:49.977Z,74.04
2023-04-09T23:52:16.572Z,73.82
2023-04-09T23:54:49.695Z,74.17
2023-04-09T23:57:17.789Z,74.03
2023-04-09T23:59:44.472Z,74.02
